sensor_id;sensor_type;location;lat;lon;timestamp;P1;durP1;ratioP1;P2;durP2;ratioP2
66741;SDS011;53654;54.152;19.432;2022-10-16T00:01:43;44.10;;;39.70;;
66741;SDS011;53654;54.152;19.432;2022-10-16T00:04:12;43.60;;;39.40;;
66741;SDS011;53654;54.152;19.432;2022-10-16T00:06:40;43.60;;;39.40;;
66741;SDS011;53654;54.152;19.432;2022-10-16T00:09:09;44.60;;;40.20;;
66741;SDS011;53654;54.152;19.432;2022-10-16T00:11:38;44.30;;;40.00;;
66741;SDS011;53654;54.152;19.432;2022-10-16T00:14:11;43.70;;;39.50;;
66741;SDS011;53654;54.152;19.432;2022-10-16T00:16:42;45.30;;;40.80;;
66741;SDS011;53654;54.152;19.432;2022-10-16T00:19:10;45.60;;;41.20;;
66741;SDS011;53654;54.152;19.432;2022-10-16T00:21:39;44.10;;;39.70;;
66741;SDS011;53654;54.152;19.432;2022-10-16T00:24:07;46.10;;;41.60;;
66741;SDS011;53654;54.152;19.432;2022-10-16T00:26:38;45.10;;;40.70;;
66741;SDS011;53654;54.152;19.432;2022-10-16T00:29:07;45.20;;;40.70;;
66741;SDS011;53654;54.152;19.432;2022-10-16T00:31:35;45.10;;;40.80;;
66741;SDS011;53654;54.152;19.432;2022-10-16T00:34:04;45.30;;;40.80;;
66741;SDS011;53654;54.152;19.432;2022-10-16T00:36:32;45.70;;;41.40;;
66741;SDS011;53654;54.152;19.432;2022-10-16T00:39:00;46.40;;;41.90;;
66741;SDS011;53654;54.152;19.432;2022-10-16T00:41:29;46.10;;;41.60;;
66741;SDS011;53654;54.152;19.432;2022-10-16T00:43:59;46.20;;;41.80;;
66741;SDS011;53654;54.152;19.432;2022-10-16T00:46:35;45.50;;;41.10;;
66741;SDS011;53654;54.152;19.432;2022-10-16T00:49:07;46.00;;;41.50;;
66741;SDS011;53654;54.152;19.432;2022-10-16T00:51:39;46.00;;;41.40;;
66741;SDS011;53654;54.152;19.432;2022-10-16T00:54:11;46.50;;;42.00;;
66741;SDS011;53654;54.152;19.432;2022-10-16T00:56:45;44.70;;;40.40;;
66741;SDS011;53654;54.152;19.432;2022-10-16T00:59:15;47.50;;;42.80;;
66741;SDS011;53654;54.152;19.432;2022-10-16T01:01:48;46.70;;;42.10;;
66741;SDS011;53654;54.152;19.432;2022-10-16T01:04:16;46.60;;;42.10;;
66741;SDS011;53654;54.152;19.432;2022-10-16T01:09:30;46.80;;;42.30;;
66741;SDS011;53654;54.152;19.432;2022-10-16T01:17:41;46.00;;;41.70;;
66741;SDS011;53654;54.152;19.432;2022-10-16T01:28:40;46.90;;;42.30;;
66741;SDS011;53654;54.152;19.432;2022-10-16T01:31:09;48.30;;;43.60;;
66741;SDS011;53654;54.152;19.432;2022-10-16T01:33:43;47.60;;;42.90;;
66741;SDS011;53654;54.152;19.432;2022-10-16T01:36:16;47.80;;;43.00;;
66741;SDS011;53654;54.152;19.432;2022-10-16T01:38:49;46.70;;;42.20;;
66741;SDS011;53654;54.152;19.432;2022-10-16T01:41:26;48.20;;;43.40;;
66741;SDS011;53654;54.152;19.432;2022-10-16T01:44:21;48.70;;;43.90;;
66741;SDS011;53654;54.152;19.432;2022-10-16T01:46:54;48.30;;;43.70;;
66741;SDS011;53654;54.152;19.432;2022-10-16T01:49:23;48.00;;;43.20;;
66741;SDS011;53654;54.152;19.432;2022-10-16T01:51:55;48.20;;;43.40;;
66741;SDS011;53654;54.152;19.432;2022-10-16T01:54:28;48.90;;;44.20;;
66741;SDS011;53654;54.152;19.432;2022-10-16T01:56:59;49.20;;;44.20;;
66741;SDS011;53654;54.152;19.432;2022-10-16T01:59:29;47.60;;;43.20;;
66741;SDS011;53654;54.152;19.432;2022-10-16T02:02:04;48.20;;;43.60;;
66741;SDS011;53654;54.152;19.432;2022-10-16T02:04:40;48.80;;;44.10;;
66741;SDS011;53654;54.152;19.432;2022-10-16T02:07:11;49.20;;;44.40;;
66741;SDS011;53654;54.152;19.432;2022-10-16T02:09:40;48.10;;;43.40;;
66741;SDS011;53654;54.152;19.432;2022-10-16T02:12:10;47.90;;;43.10;;
66741;SDS011;53654;54.152;19.432;2022-10-16T02:14:43;48.30;;;43.60;;
66741;SDS011;53654;54.152;19.432;2022-10-16T02:17:11;48.80;;;43.90;;
66741;SDS011;53654;54.152;19.432;2022-10-16T02:19:42;47.90;;;43.30;;
66741;SDS011;53654;54.152;19.432;2022-10-16T02:22:26;47.60;;;43.00;;
66741;SDS011;53654;54.152;19.432;2022-10-16T02:30:38;47.80;;;43.10;;
66741;SDS011;53654;54.152;19.432;2022-10-16T02:33:10;47.80;;;43.10;;
66741;SDS011;53654;54.152;19.432;2022-10-16T02:35:42;47.50;;;42.80;;
66741;SDS011;53654;54.152;19.432;2022-10-16T02:38:12;48.20;;;43.40;;
66741;SDS011;53654;54.152;19.432;2022-10-16T02:40:42;48.30;;;43.50;;
66741;SDS011;53654;54.152;19.432;2022-10-16T02:43:11;47.90;;;43.20;;
66741;SDS011;53654;54.152;19.432;2022-10-16T02:45:39;48.40;;;43.70;;
66741;SDS011;53654;54.152;19.432;2022-10-16T02:48:08;47.70;;;43.00;;
66741;SDS011;53654;54.152;19.432;2022-10-16T02:50:36;48.40;;;43.60;;
66741;SDS011;53654;54.152;19.432;2022-10-16T02:53:04;49.10;;;44.30;;
66741;SDS011;53654;54.152;19.432;2022-10-16T02:55:32;46.90;;;42.40;;
66741;SDS011;53654;54.152;19.432;2022-10-16T02:58:00;48.10;;;43.20;;
66741;SDS011;53654;54.152;19.432;2022-10-16T03:00:28;46.70;;;42.10;;
66741;SDS011;53654;54.152;19.432;2022-10-16T03:02:56;47.00;;;42.40;;
66741;SDS011;53654;54.152;19.432;2022-10-16T03:05:24;47.80;;;43.10;;
66741;SDS011;53654;54.152;19.432;2022-10-16T03:07:52;46.30;;;41.70;;
66741;SDS011;53654;54.152;19.432;2022-10-16T03:10:20;47.70;;;43.10;;
66741;SDS011;53654;54.152;19.432;2022-10-16T03:12:48;47.80;;;43.20;;
66741;SDS011;53654;54.152;19.432;2022-10-16T03:15:16;46.40;;;42.00;;
66741;SDS011;53654;54.152;19.432;2022-10-16T03:17:44;47.50;;;42.80;;
66741;SDS011;53654;54.152;19.432;2022-10-16T03:20:12;47.00;;;42.40;;
66741;SDS011;53654;54.152;19.432;2022-10-16T03:22:40;46.40;;;41.90;;
66741;SDS011;53654;54.152;19.432;2022-10-16T03:25:08;47.50;;;42.80;;
66741;SDS011;53654;54.152;19.432;2022-10-16T03:27:36;47.70;;;43.00;;
66741;SDS011;53654;54.152;19.432;2022-10-16T03:30:04;48.50;;;43.60;;
66741;SDS011;53654;54.152;19.432;2022-10-16T03:32:33;47.40;;;42.60;;
66741;SDS011;53654;54.152;19.432;2022-10-16T03:35:02;48.10;;;43.40;;
66741;SDS011;53654;54.152;19.432;2022-10-16T03:37:30;48.00;;;43.30;;
66741;SDS011;53654;54.152;19.432;2022-10-16T03:39:58;48.20;;;43.30;;
66741;SDS011;53654;54.152;19.432;2022-10-16T03:42:26;48.50;;;43.70;;
66741;SDS011;53654;54.152;19.432;2022-10-16T03:44:54;47.00;;;42.40;;
66741;SDS011;53654;54.152;19.432;2022-10-16T03:47:22;48.30;;;43.50;;
66741;SDS011;53654;54.152;19.432;2022-10-16T03:49:52;47.60;;;42.90;;
66741;SDS011;53654;54.152;19.432;2022-10-16T03:52:20;48.60;;;43.70;;
66741;SDS011;53654;54.152;19.432;2022-10-16T03:54:47;46.50;;;41.80;;
66741;SDS011;53654;54.152;19.432;2022-10-16T03:57:15;47.50;;;42.90;;
66741;SDS011;53654;54.152;19.432;2022-10-16T03:59:43;47.70;;;43.00;;
66741;SDS011;53654;54.152;19.432;2022-10-16T04:02:11;49.30;;;44.30;;
66741;SDS011;53654;54.152;19.432;2022-10-16T04:04:40;48.20;;;43.40;;
66741;SDS011;53654;54.152;19.432;2022-10-16T04:07:08;48.30;;;43.30;;
66741;SDS011;53654;54.152;19.432;2022-10-16T04:09:36;48.50;;;43.60;;
66741;SDS011;53654;54.152;19.432;2022-10-16T04:12:04;47.50;;;42.70;;
66741;SDS011;53654;54.152;19.432;2022-10-16T04:14:32;47.10;;;42.40;;
66741;SDS011;53654;54.152;19.432;2022-10-16T04:17:00;45.80;;;41.20;;
66741;SDS011;53654;54.152;19.432;2022-10-16T04:19:28;46.70;;;42.10;;
66741;SDS011;53654;54.152;19.432;2022-10-16T04:21:56;49.10;;;44.20;;
66741;SDS011;53654;54.152;19.432;2022-10-16T04:24:24;48.70;;;43.80;;
66741;SDS011;53654;54.152;19.432;2022-10-16T04:26:52;48.20;;;43.20;;
66741;SDS011;53654;54.152;19.432;2022-10-16T04:29:20;47.00;;;42.30;;
66741;SDS011;53654;54.152;19.432;2022-10-16T04:31:48;46.10;;;41.50;;
66741;SDS011;53654;54.152;19.432;2022-10-16T04:34:16;47.30;;;42.50;;
66741;SDS011;53654;54.152;19.432;2022-10-16T04:36:46;47.90;;;43.10;;
66741;SDS011;53654;54.152;19.432;2022-10-16T04:39:15;46.90;;;42.20;;
66741;SDS011;53654;54.152;19.432;2022-10-16T04:41:44;46.90;;;42.40;;
66741;SDS011;53654;54.152;19.432;2022-10-16T04:44:12;47.10;;;42.50;;
66741;SDS011;53654;54.152;19.432;2022-10-16T04:46:40;45.60;;;41.20;;
66741;SDS011;53654;54.152;19.432;2022-10-16T04:49:08;45.10;;;40.70;;
66741;SDS011;53654;54.152;19.432;2022-10-16T04:51:36;46.50;;;41.80;;
66741;SDS011;53654;54.152;19.432;2022-10-16T04:54:04;46.10;;;41.70;;
66741;SDS011;53654;54.152;19.432;2022-10-16T04:56:32;45.50;;;41.00;;
66741;SDS011;53654;54.152;19.432;2022-10-16T04:59:00;45.70;;;41.30;;
66741;SDS011;53654;54.152;19.432;2022-10-16T05:01:28;44.80;;;40.50;;
66741;SDS011;53654;54.152;19.432;2022-10-16T05:03:56;43.10;;;39.00;;
66741;SDS011;53654;54.152;19.432;2022-10-16T05:06:24;44.00;;;39.60;;
66741;SDS011;53654;54.152;19.432;2022-10-16T05:08:52;42.70;;;38.60;;
66741;SDS011;53654;54.152;19.432;2022-10-16T05:11:20;44.10;;;39.80;;
66741;SDS011;53654;54.152;19.432;2022-10-16T05:13:48;42.90;;;38.70;;
66741;SDS011;53654;54.152;19.432;2022-10-16T05:16:22;42.40;;;38.20;;
66741;SDS011;53654;54.152;19.432;2022-10-16T05:18:51;41.70;;;37.70;;
66741;SDS011;53654;54.152;19.432;2022-10-16T05:21:36;42.00;;;37.90;;
66741;SDS011;53654;54.152;19.432;2022-10-16T05:24:04;42.60;;;38.40;;
66741;SDS011;53654;54.152;19.432;2022-10-16T05:26:32;41.60;;;37.70;;
66741;SDS011;53654;54.152;19.432;2022-10-16T05:29:00;40.70;;;36.90;;
66741;SDS011;53654;54.152;19.432;2022-10-16T05:31:29;40.30;;;36.50;;
66741;SDS011;53654;54.152;19.432;2022-10-16T05:33:57;41.10;;;37.20;;
66741;SDS011;53654;54.152;19.432;2022-10-16T05:36:29;41.00;;;37.10;;
66741;SDS011;53654;54.152;19.432;2022-10-16T05:38:57;40.80;;;37.00;;
66741;SDS011;53654;54.152;19.432;2022-10-16T05:41:25;40.90;;;37.20;;
66741;SDS011;53654;54.152;19.432;2022-10-16T05:43:53;39.80;;;36.10;;
66741;SDS011;53654;54.152;19.432;2022-10-16T05:46:21;41.20;;;37.30;;
66741;SDS011;53654;54.152;19.432;2022-10-16T05:48:51;41.40;;;37.40;;
66741;SDS011;53654;54.152;19.432;2022-10-16T05:51:20;40.20;;;36.30;;
66741;SDS011;53654;54.152;19.432;2022-10-16T05:53:48;40.90;;;37.10;;
66741;SDS011;53654;54.152;19.432;2022-10-16T05:56:16;39.60;;;35.90;;
66741;SDS011;53654;54.152;19.432;2022-10-16T05:58:44;41.30;;;37.40;;
66741;SDS011;53654;54.152;19.432;2022-10-16T06:01:13;40.70;;;36.90;;
66741;SDS011;53654;54.152;19.432;2022-10-16T06:03:44;39.60;;;35.90;;
66741;SDS011;53654;54.152;19.432;2022-10-16T06:06:13;38.40;;;34.70;;
66741;SDS011;53654;54.152;19.432;2022-10-16T06:08:43;40.50;;;36.40;;
66741;SDS011;53654;54.152;19.432;2022-10-16T06:11:17;38.60;;;34.90;;
66741;SDS011;53654;54.152;19.432;2022-10-16T06:13:54;39.30;;;35.50;;
66741;SDS011;53654;54.152;19.432;2022-10-16T06:16:25;37.70;;;33.90;;
66741;SDS011;53654;54.152;19.432;2022-10-16T06:18:54;40.50;;;36.40;;
66741;SDS011;53654;54.152;19.432;2022-10-16T06:21:28;38.50;;;34.90;;
66741;SDS011;53654;54.152;19.432;2022-10-16T06:23:57;38.10;;;34.40;;
66741;SDS011;53654;54.152;19.432;2022-10-16T06:26:26;36.50;;;33.20;;
66741;SDS011;53654;54.152;19.432;2022-10-16T06:28:57;36.80;;;33.40;;
66741;SDS011;53654;54.152;19.432;2022-10-16T06:31:27;36.10;;;32.70;;
66741;SDS011;53654;54.152;19.432;2022-10-16T06:33:58;35.50;;;32.20;;
66741;SDS011;53654;54.152;19.432;2022-10-16T06:36:27;36.80;;;33.20;;
66741;SDS011;53654;54.152;19.432;2022-10-16T06:38:55;36.10;;;32.60;;
66741;SDS011;53654;54.152;19.432;2022-10-16T06:41:24;34.70;;;31.50;;
66741;SDS011;53654;54.152;19.432;2022-10-16T06:43:52;35.20;;;31.90;;
66741;SDS011;53654;54.152;19.432;2022-10-16T06:46:21;35.00;;;31.60;;
66741;SDS011;53654;54.152;19.432;2022-10-16T06:48:51;34.60;;;31.40;;
66741;SDS011;53654;54.152;19.432;2022-10-16T06:51:21;33.30;;;30.20;;
66741;SDS011;53654;54.152;19.432;2022-10-16T06:53:51;33.80;;;30.70;;
66741;SDS011;53654;54.152;19.432;2022-10-16T06:56:31;33.00;;;30.00;;
66741;SDS011;53654;54.152;19.432;2022-10-16T06:59:00;31.80;;;28.90;;
66741;SDS011;53654;54.152;19.432;2022-10-16T07:01:28;33.00;;;29.90;;
66741;SDS011;53654;54.152;19.432;2022-10-16T07:03:57;33.50;;;30.40;;
66741;SDS011;53654;54.152;19.432;2022-10-16T07:06:26;30.70;;;27.80;;
66741;SDS011;53654;54.152;19.432;2022-10-16T07:08:55;31.50;;;28.50;;
66741;SDS011;53654;54.152;19.432;2022-10-16T07:11:23;31.70;;;28.60;;
66741;SDS011;53654;54.152;19.432;2022-10-16T07:13:51;31.90;;;28.90;;
66741;SDS011;53654;54.152;19.432;2022-10-16T07:16:24;31.50;;;28.60;;
66741;SDS011;53654;54.152;19.432;2022-10-16T07:18:55;30.60;;;27.70;;
66741;SDS011;53654;54.152;19.432;2022-10-16T07:21:29;28.30;;;25.80;;
66741;SDS011;53654;54.152;19.432;2022-10-16T07:23:59;29.00;;;26.50;;
66741;SDS011;53654;54.152;19.432;2022-10-16T07:26:29;29.10;;;26.40;;
66741;SDS011;53654;54.152;19.432;2022-10-16T07:29:00;29.30;;;26.60;;
66741;SDS011;53654;54.152;19.432;2022-10-16T07:31:28;28.80;;;26.20;;
66741;SDS011;53654;54.152;19.432;2022-10-16T07:33:57;27.70;;;25.20;;
66741;SDS011;53654;54.152;19.432;2022-10-16T07:36:27;26.80;;;24.50;;
66741;SDS011;53654;54.152;19.432;2022-10-16T07:38:56;26.40;;;24.00;;
66741;SDS011;53654;54.152;19.432;2022-10-16T07:41:27;26.40;;;24.00;;
66741;SDS011;53654;54.152;19.432;2022-10-16T07:43:55;26.80;;;24.30;;
66741;SDS011;53654;54.152;19.432;2022-10-16T07:46:28;26.50;;;24.10;;
66741;SDS011;53654;54.152;19.432;2022-10-16T07:48:56;26.30;;;24.00;;
66741;SDS011;53654;54.152;19.432;2022-10-16T07:51:24;27.10;;;24.60;;
66741;SDS011;53654;54.152;19.432;2022-10-16T07:53:53;26.90;;;24.60;;
66741;SDS011;53654;54.152;19.432;2022-10-16T07:56:22;26.60;;;24.20;;
66741;SDS011;53654;54.152;19.432;2022-10-16T07:58:50;26.00;;;23.70;;
66741;SDS011;53654;54.152;19.432;2022-10-16T08:01:19;26.30;;;23.90;;
66741;SDS011;53654;54.152;19.432;2022-10-16T08:03:49;25.90;;;23.70;;
66741;SDS011;53654;54.152;19.432;2022-10-16T08:06:19;25.60;;;23.30;;
66741;SDS011;53654;54.152;19.432;2022-10-16T08:08:55;26.50;;;24.30;;
66741;SDS011;53654;54.152;19.432;2022-10-16T08:11:23;26.50;;;24.20;;
66741;SDS011;53654;54.152;19.432;2022-10-16T08:13:51;26.30;;;23.90;;
66741;SDS011;53654;54.152;19.432;2022-10-16T08:16:19;25.30;;;23.00;;
66741;SDS011;53654;54.152;19.432;2022-10-16T08:18:48;26.20;;;23.90;;
66741;SDS011;53654;54.152;19.432;2022-10-16T08:21:20;26.40;;;24.00;;
66741;SDS011;53654;54.152;19.432;2022-10-16T08:23:50;27.50;;;25.10;;
66741;SDS011;53654;54.152;19.432;2022-10-16T08:26:25;28.30;;;25.80;;
66741;SDS011;53654;54.152;19.432;2022-10-16T08:28:54;29.70;;;27.00;;
66741;SDS011;53654;54.152;19.432;2022-10-16T08:31:24;28.20;;;25.80;;
66741;SDS011;53654;54.152;19.432;2022-10-16T08:33:53;29.30;;;26.70;;
66741;SDS011;53654;54.152;19.432;2022-10-16T08:36:22;28.60;;;26.00;;
66741;SDS011;53654;54.152;19.432;2022-10-16T08:38:50;28.30;;;25.70;;
66741;SDS011;53654;54.152;19.432;2022-10-16T08:41:34;29.00;;;26.50;;
66741;SDS011;53654;54.152;19.432;2022-10-16T08:44:17;28.80;;;26.20;;
66741;SDS011;53654;54.152;19.432;2022-10-16T08:47:26;29.20;;;26.60;;
66741;SDS011;53654;54.152;19.432;2022-10-16T08:50:10;29.50;;;26.80;;
66741;SDS011;53654;54.152;19.432;2022-10-16T08:52:42;29.30;;;26.50;;
66741;SDS011;53654;54.152;19.432;2022-10-16T08:57:58;30.20;;;27.50;;
66741;SDS011;53654;54.152;19.432;2022-10-16T09:00:27;29.10;;;26.50;;
66741;SDS011;53654;54.152;19.432;2022-10-16T09:03:40;28.50;;;25.90;;
66741;SDS011;53654;54.152;19.432;2022-10-16T09:17:55;26.80;;;24.50;;
66741;SDS011;53654;54.152;19.432;2022-10-16T09:23:28;25.10;;;22.70;;
66741;SDS011;53654;54.152;19.432;2022-10-16T09:25:58;25.30;;;23.10;;
66741;SDS011;53654;54.152;19.432;2022-10-16T09:28:27;25.70;;;23.50;;
66741;SDS011;53654;54.152;19.432;2022-10-16T09:30:55;24.60;;;22.50;;
66741;SDS011;53654;54.152;19.432;2022-10-16T09:33:24;24.40;;;22.30;;
66741;SDS011;53654;54.152;19.432;2022-10-16T09:35:57;25.00;;;22.80;;
66741;SDS011;53654;54.152;19.432;2022-10-16T09:38:30;24.90;;;22.60;;
66741;SDS011;53654;54.152;19.432;2022-10-16T09:41:00;26.10;;;23.70;;
66741;SDS011;53654;54.152;19.432;2022-10-16T09:43:53;25.30;;;23.10;;
66741;SDS011;53654;54.152;19.432;2022-10-16T09:48:58;24.40;;;22.30;;
66741;SDS011;53654;54.152;19.432;2022-10-16T09:51:28;24.60;;;22.50;;
66741;SDS011;53654;54.152;19.432;2022-10-16T09:54:00;23.10;;;21.10;;
66741;SDS011;53654;54.152;19.432;2022-10-16T09:56:31;23.60;;;21.60;;
66741;SDS011;53654;54.152;19.432;2022-10-16T10:01:43;22.60;;;20.50;;
66741;SDS011;53654;54.152;19.432;2022-10-16T10:04:14;23.20;;;21.20;;
66741;SDS011;53654;54.152;19.432;2022-10-16T10:06:44;22.60;;;20.70;;
66741;SDS011;53654;54.152;19.432;2022-10-16T10:11:54;21.80;;;19.90;;
66741;SDS011;53654;54.152;19.432;2022-10-16T10:14:27;21.20;;;19.40;;
66741;SDS011;53654;54.152;19.432;2022-10-16T10:22:17;22.40;;;20.40;;
66741;SDS011;53654;54.152;19.432;2022-10-16T10:25:14;22.00;;;20.10;;
66741;SDS011;53654;54.152;19.432;2022-10-16T10:34:45;22.10;;;20.10;;
66741;SDS011;53654;54.152;19.432;2022-10-16T10:39:57;21.80;;;19.90;;
66741;SDS011;53654;54.152;19.432;2022-10-16T10:42:34;22.10;;;20.30;;
66741;SDS011;53654;54.152;19.432;2022-10-16T10:50:35;21.10;;;19.30;;
66741;SDS011;53654;54.152;19.432;2022-10-16T10:53:21;21.80;;;20.00;;
66741;SDS011;53654;54.152;19.432;2022-10-16T10:58:46;21.20;;;19.40;;
66741;SDS011;53654;54.152;19.432;2022-10-16T11:01:41;20.80;;;19.20;;
66741;SDS011;53654;54.152;19.432;2022-10-16T11:06:55;20.30;;;18.70;;
66741;SDS011;53654;54.152;19.432;2022-10-16T11:12:09;18.80;;;17.30;;
66741;SDS011;53654;54.152;19.432;2022-10-16T11:17:22;18.30;;;16.70;;
66741;SDS011;53654;54.152;19.432;2022-10-16T11:20:13;17.70;;;16.30;;
66741;SDS011;53654;54.152;19.432;2022-10-16T11:25:33;17.00;;;15.70;;
66741;SDS011;53654;54.152;19.432;2022-10-16T11:31:30;16.60;;;15.30;;
66741;SDS011;53654;54.152;19.432;2022-10-16T11:34:04;16.30;;;15.00;;
66741;SDS011;53654;54.152;19.432;2022-10-16T11:36:45;17.00;;;15.60;;
66741;SDS011;53654;54.152;19.432;2022-10-16T11:39:23;16.70;;;15.40;;
66741;SDS011;53654;54.152;19.432;2022-10-16T11:47:44;16.50;;;15.30;;
66741;SDS011;53654;54.152;19.432;2022-10-16T11:53:22;16.00;;;14.80;;
66741;SDS011;53654;54.152;19.432;2022-10-16T11:56:27;15.90;;;14.60;;
66741;SDS011;53654;54.152;19.432;2022-10-16T11:59:06;16.30;;;14.90;;
66741;SDS011;53654;54.152;19.432;2022-10-16T12:01:46;15.50;;;14.20;;
66741;SDS011;53654;54.152;19.432;2022-10-16T12:04:22;16.20;;;14.90;;
66741;SDS011;53654;54.152;19.432;2022-10-16T12:07:08;15.40;;;14.20;;
66741;SDS011;53654;54.152;19.432;2022-10-16T12:09:40;16.30;;;15.00;;
66741;SDS011;53654;54.152;19.432;2022-10-16T12:12:25;16.00;;;14.80;;
66741;SDS011;53654;54.152;19.432;2022-10-16T12:15:20;16.60;;;15.30;;
66741;SDS011;53654;54.152;19.432;2022-10-16T12:18:23;16.40;;;15.10;;
66741;SDS011;53654;54.152;19.432;2022-10-16T12:20:58;18.00;;;16.60;;
66741;SDS011;53654;54.152;19.432;2022-10-16T12:23:33;18.60;;;17.20;;
66741;SDS011;53654;54.152;19.432;2022-10-16T12:26:05;20.10;;;18.50;;
66741;SDS011;53654;54.152;19.432;2022-10-16T12:28:34;21.10;;;19.50;;
66741;SDS011;53654;54.152;19.432;2022-10-16T12:31:04;23.70;;;21.70;;
66741;SDS011;53654;54.152;19.432;2022-10-16T12:33:36;22.90;;;21.00;;
66741;SDS011;53654;54.152;19.432;2022-10-16T12:36:13;24.10;;;22.10;;
66741;SDS011;53654;54.152;19.432;2022-10-16T12:38:50;23.50;;;21.70;;
66741;SDS011;53654;54.152;19.432;2022-10-16T12:41:27;24.70;;;22.70;;
66741;SDS011;53654;54.152;19.432;2022-10-16T12:44:00;24.60;;;22.70;;
66741;SDS011;53654;54.152;19.432;2022-10-16T12:51:41;17.00;;;15.80;;
66741;SDS011;53654;54.152;19.432;2022-10-16T12:54:18;17.70;;;16.40;;
66741;SDS011;53654;54.152;19.432;2022-10-16T13:00:03;20.00;;;18.40;;
66741;SDS011;53654;54.152;19.432;2022-10-16T13:11:02;28.80;;;26.40;;
66741;SDS011;53654;54.152;19.432;2022-10-16T13:24:46;30.70;;;28.20;;
66741;SDS011;53654;54.152;19.432;2022-10-16T13:32:46;30.40;;;27.90;;
66741;SDS011;53654;54.152;19.432;2022-10-16T13:35:21;30.30;;;27.80;;
66741;SDS011;53654;54.152;19.432;2022-10-16T13:40:53;26.60;;;24.40;;
66741;SDS011;53654;54.152;19.432;2022-10-16T13:43:51;27.20;;;24.80;;
66741;SDS011;53654;54.152;19.432;2022-10-16T13:46:24;28.10;;;25.80;;
66741;SDS011;53654;54.152;19.432;2022-10-16T13:49:00;24.60;;;22.70;;
66741;SDS011;53654;54.152;19.432;2022-10-16T13:51:33;25.50;;;23.50;;
66741;SDS011;53654;54.152;19.432;2022-10-16T13:54:01;28.30;;;26.10;;
66741;SDS011;53654;54.152;19.432;2022-10-16T13:56:30;28.30;;;26.00;;
66741;SDS011;53654;54.152;19.432;2022-10-16T13:59:03;28.60;;;26.20;;
66741;SDS011;53654;54.152;19.432;2022-10-16T14:01:42;30.20;;;27.80;;
66741;SDS011;53654;54.152;19.432;2022-10-16T14:04:11;28.70;;;26.50;;
66741;SDS011;53654;54.152;19.432;2022-10-16T14:06:42;31.00;;;28.40;;
66741;SDS011;53654;54.152;19.432;2022-10-16T14:12:07;28.30;;;26.10;;
66741;SDS011;53654;54.152;19.432;2022-10-16T14:14:55;27.50;;;25.50;;
66741;SDS011;53654;54.152;19.432;2022-10-16T14:17:32;28.70;;;26.40;;
66741;SDS011;53654;54.152;19.432;2022-10-16T14:20:04;29.00;;;26.60;;
66741;SDS011;53654;54.152;19.432;2022-10-16T14:22:35;28.00;;;25.80;;
66741;SDS011;53654;54.152;19.432;2022-10-16T14:27:57;27.40;;;25.30;;
66741;SDS011;53654;54.152;19.432;2022-10-16T14:30:30;27.60;;;25.50;;
66741;SDS011;53654;54.152;19.432;2022-10-16T14:33:05;25.00;;;23.10;;
66741;SDS011;53654;54.152;19.432;2022-10-16T14:35:56;24.20;;;22.30;;
66741;SDS011;53654;54.152;19.432;2022-10-16T14:39:03;22.70;;;20.90;;
66741;SDS011;53654;54.152;19.432;2022-10-16T14:41:40;20.60;;;19.00;;
66741;SDS011;53654;54.152;19.432;2022-10-16T14:44:11;19.00;;;17.70;;
66741;SDS011;53654;54.152;19.432;2022-10-16T14:46:41;18.50;;;17.00;;
66741;SDS011;53654;54.152;19.432;2022-10-16T14:51:40;18.20;;;16.90;;
66741;SDS011;53654;54.152;19.432;2022-10-16T14:54:09;18.40;;;17.10;;
66741;SDS011;53654;54.152;19.432;2022-10-16T14:56:46;24.50;;;22.60;;
66741;SDS011;53654;54.152;19.432;2022-10-16T14:59:19;21.10;;;19.50;;
66741;SDS011;53654;54.152;19.432;2022-10-16T15:01:53;19.10;;;17.70;;
66741;SDS011;53654;54.152;19.432;2022-10-16T15:04:21;18.10;;;16.80;;
66741;SDS011;53654;54.152;19.432;2022-10-16T15:06:49;19.30;;;17.80;;
66741;SDS011;53654;54.152;19.432;2022-10-16T15:09:17;18.50;;;17.10;;
66741;SDS011;53654;54.152;19.432;2022-10-16T15:11:45;18.20;;;16.80;;
66741;SDS011;53654;54.152;19.432;2022-10-16T15:14:14;19.30;;;17.90;;
66741;SDS011;53654;54.152;19.432;2022-10-16T15:16:47;18.80;;;17.50;;
66741;SDS011;53654;54.152;19.432;2022-10-16T15:19:15;19.40;;;17.90;;
66741;SDS011;53654;54.152;19.432;2022-10-16T15:21:42;18.40;;;17.10;;
66741;SDS011;53654;54.152;19.432;2022-10-16T15:24:12;19.00;;;17.50;;
66741;SDS011;53654;54.152;19.432;2022-10-16T15:26:48;18.70;;;17.30;;
66741;SDS011;53654;54.152;19.432;2022-10-16T15:29:16;19.20;;;17.90;;
66741;SDS011;53654;54.152;19.432;2022-10-16T15:31:45;19.70;;;18.20;;
66741;SDS011;53654;54.152;19.432;2022-10-16T15:34:15;19.20;;;17.70;;
66741;SDS011;53654;54.152;19.432;2022-10-16T15:36:43;19.20;;;17.80;;
66741;SDS011;53654;54.152;19.432;2022-10-16T15:39:15;19.80;;;18.30;;
66741;SDS011;53654;54.152;19.432;2022-10-16T15:41:45;19.70;;;18.20;;
66741;SDS011;53654;54.152;19.432;2022-10-16T15:44:19;19.60;;;18.20;;
66741;SDS011;53654;54.152;19.432;2022-10-16T15:46:48;19.90;;;18.30;;
66741;SDS011;53654;54.152;19.432;2022-10-16T15:49:16;19.30;;;17.80;;
66741;SDS011;53654;54.152;19.432;2022-10-16T15:51:44;20.00;;;18.50;;
66741;SDS011;53654;54.152;19.432;2022-10-16T15:54:13;20.10;;;18.50;;
66741;SDS011;53654;54.152;19.432;2022-10-16T15:56:41;21.00;;;19.40;;
66741;SDS011;53654;54.152;19.432;2022-10-16T15:59:09;20.50;;;19.10;;
66741;SDS011;53654;54.152;19.432;2022-10-16T16:01:38;21.60;;;20.00;;
66741;SDS011;53654;54.152;19.432;2022-10-16T16:04:06;22.90;;;21.20;;
66741;SDS011;53654;54.152;19.432;2022-10-16T16:06:46;22.80;;;21.10;;
66741;SDS011;53654;54.152;19.432;2022-10-16T16:09:14;23.40;;;21.60;;
66741;SDS011;53654;54.152;19.432;2022-10-16T16:11:42;23.00;;;21.20;;
66741;SDS011;53654;54.152;19.432;2022-10-16T16:14:12;23.10;;;21.20;;
66741;SDS011;53654;54.152;19.432;2022-10-16T16:16:41;23.30;;;21.50;;
66741;SDS011;53654;54.152;19.432;2022-10-16T16:19:09;24.40;;;22.50;;
66741;SDS011;53654;54.152;19.432;2022-10-16T16:21:38;23.70;;;21.80;;
66741;SDS011;53654;54.152;19.432;2022-10-16T16:24:06;23.40;;;21.50;;
66741;SDS011;53654;54.152;19.432;2022-10-16T16:26:36;25.10;;;23.10;;
66741;SDS011;53654;54.152;19.432;2022-10-16T16:29:07;25.20;;;23.30;;
66741;SDS011;53654;54.152;19.432;2022-10-16T16:31:41;24.40;;;22.50;;
66741;SDS011;53654;54.152;19.432;2022-10-16T16:34:10;25.90;;;23.90;;
66741;SDS011;53654;54.152;19.432;2022-10-16T16:36:38;25.30;;;23.40;;
66741;SDS011;53654;54.152;19.432;2022-10-16T16:39:07;24.50;;;22.60;;
66741;SDS011;53654;54.152;19.432;2022-10-16T16:41:36;26.20;;;24.20;;
66741;SDS011;53654;54.152;19.432;2022-10-16T16:44:04;27.30;;;25.10;;
66741;SDS011;53654;54.152;19.432;2022-10-16T16:46:35;27.20;;;25.10;;
66741;SDS011;53654;54.152;19.432;2022-10-16T16:49:03;34.70;;;31.90;;
66741;SDS011;53654;54.152;19.432;2022-10-16T16:51:31;32.00;;;29.50;;
66741;SDS011;53654;54.152;19.432;2022-10-16T16:54:06;36.30;;;33.20;;